createdAt,value
2019-01-20T00:01:07.536Z,20.50
2019-01-20T00:03:48.490Z,20.40
2019-01-20T00:09:11.336Z,21.00
2019-01-20T00:11:52.823Z,20.40
2019-01-20T00:14:33.659Z,20.43
2019-01-20T00:17:14.882Z,20.80
2019-01-20T00:19:55.726Z,20.30
2019-01-20T00:22:36.609Z,20.97
2019-01-20T00:25:18.349Z,20.80
2019-01-20T00:30:46.286Z,20.47
2019-01-20T00:33:31.102Z,20.87
2019-01-20T00:36:18.415Z,20.43
2019-01-20T00:41:43.934Z,21.23
2019-01-20T00:44:25.118Z,21.17
2019-01-20T00:47:06.382Z,20.23
2019-01-20T00:49:46.933Z,19.97
2019-01-20T00:52:27.908Z,20.77
2019-01-20T00:55:08.682Z,21.30
2019-01-20T00:57:49.241Z,20.17
2019-01-20T01:00:33.260Z,21.23
2019-01-20T01:03:14.398Z,21.43
2019-01-20T01:05:54.735Z,21.53
2019-01-20T01:08:35.554Z,21.83
2019-01-20T01:11:16.492Z,20.33
2019-01-20T01:16:41.112Z,20.07
2019-01-20T01:22:09.924Z,20.33
2019-01-20T01:27:42.531Z,21.03
2019-01-20T01:30:23.312Z,20.90
2019-01-20T01:35:46.328Z,21.07
2019-01-20T01:38:26.819Z,22.03
2019-01-20T01:41:07.380Z,21.73
2019-01-20T01:43:48.447Z,20.33
2019-01-20T01:46:29.258Z,21.57
2019-01-20T01:48:57.748Z,21.87
2019-01-20T01:51:45.956Z,21.40
2019-01-20T01:54:33.743Z,21.57
2019-01-20T01:57:22.232Z,22.13
2019-01-20T02:00:34.799Z,23.40
2019-01-20T02:03:15.570Z,22.10
2019-01-20T02:05:56.495Z,22.20
2019-01-20T02:08:37.682Z,21.37
2019-01-20T02:11:19.450Z,22.00
2019-01-20T02:14:00.641Z,22.60
2019-01-20T02:16:50.702Z,23.10
2019-01-20T02:19:31.009Z,21.70
2019-01-20T02:22:12.987Z,22.37
2019-01-20T02:24:53.543Z,22.63
2019-01-20T02:27:34.007Z,24.23
2019-01-20T02:30:14.984Z,24.53
2019-01-20T02:35:42.940Z,22.17
2019-01-20T02:38:26.807Z,23.47
2019-01-20T02:41:07.266Z,23.07
2019-01-20T02:46:36.485Z,23.93
2019-01-20T02:49:17.155Z,23.97
2019-01-20T02:51:57.814Z,25.40
2019-01-20T02:57:23.352Z,24.63
2019-01-20T03:00:04.636Z,24.63
2019-01-20T03:02:45.894Z,26.10
2019-01-20T03:05:26.862Z,25.63
2019-01-20T03:08:07.711Z,26.63
2019-01-20T03:10:48.470Z,27.70
2019-01-20T03:13:29.218Z,29.90
2019-01-20T03:16:10.065Z,28.67
2019-01-20T03:18:51.197Z,30.03
2019-01-20T03:21:19.609Z,28.33
2019-01-20T03:24:07.404Z,30.13
2019-01-20T03:26:55.516Z,30.63
2019-01-20T03:29:43.356Z,30.70
2019-01-20T03:32:31.440Z,29.07
2019-01-20T03:35:39.981Z,28.83
2019-01-20T03:38:30.664Z,28.37
2019-01-20T03:41:18.658Z,26.70
2019-01-20T03:44:06.579Z,26.50
2019-01-20T03:47:13.878Z,27.53
2019-01-20T03:50:01.899Z,26.43
2019-01-20T03:52:50.099Z,24.67
2019-01-20T03:55:38.442Z,25.23
2019-01-20T04:01:21.090Z,25.53
2019-01-20T04:04:02.093Z,24.17
2019-01-20T04:06:43.244Z,25.40
2019-01-20T04:09:24.462Z,25.50
2019-01-20T04:14:49.750Z,24.77
2019-01-20T04:17:30.937Z,25.93
2019-01-20T04:20:19.356Z,26.60
2019-01-20T04:26:30.120Z,25.43
2019-01-20T04:28:58.586Z,26.47
2019-01-20T04:34:54.938Z,23.97
2019-01-20T04:37:42.729Z,24.63
2019-01-20T04:40:33.597Z,25.13
2019-01-20T04:43:21.766Z,25.77
2019-01-20T04:46:09.908Z,25.00
2019-01-20T04:48:57.695Z,24.90
2019-01-20T04:51:45.719Z,23.80
2019-01-20T04:54:33.796Z,24.13
2019-01-20T05:00:49.758Z,22.70
2019-01-20T05:03:30.527Z,22.47
2019-01-20T05:06:11.194Z,24.43
2019-01-20T05:08:55.674Z,23.20
2019-01-20T05:11:36.657Z,24.60
2019-01-20T05:14:20.770Z,24.73
2019-01-20T05:19:55.885Z,24.30
2019-01-20T05:22:43.746Z,21.90
2019-01-20T05:25:31.543Z,23.27
2019-01-20T05:28:19.661Z,23.93
2019-01-20T05:31:07.886Z,24.87
2019-01-20T05:33:56.028Z,23.13
2019-01-20T05:36:45.832Z,23.30
2019-01-20T05:39:15.979Z,24.10
2019-01-20T05:42:01.586Z,25.17
2019-01-20T05:44:37.679Z,29.83
2019-01-20T05:47:25.709Z,28.73
2019-01-20T05:50:13.874Z,27.63
2019-01-20T05:53:21.315Z,26.17
2019-01-20T05:56:23.564Z,23.00
2019-01-20T05:59:02.308Z,25.00
2019-01-20T06:01:50.190Z,25.57
2019-01-20T06:04:34.472Z,25.37
2019-01-20T06:10:08.385Z,26.20
2019-01-20T06:15:38.621Z,22.43
2019-01-20T06:18:19.416Z,24.50
2019-01-20T06:23:44.273Z,25.20
2019-01-20T06:26:25.475Z,25.37
2019-01-20T06:29:06.065Z,25.07
2019-01-20T06:31:47.284Z,25.73
2019-01-20T06:34:27.804Z,25.93
2019-01-20T06:37:08.205Z,24.43
2019-01-20T06:39:49.705Z,26.17
2019-01-20T06:42:30.161Z,26.93
2019-01-20T06:45:11.112Z,28.07
2019-01-20T06:47:52.396Z,26.07
2019-01-20T06:50:32.993Z,27.47
2019-01-20T06:53:15.314Z,28.30
2019-01-20T06:55:59.166Z,27.33
2019-01-20T06:58:43.851Z,29.00
2019-01-20T07:04:09.169Z,27.57
2019-01-20T07:09:39.126Z,25.63
2019-01-20T07:15:08.290Z,26.10
2019-01-20T07:20:37.818Z,27.93
2019-01-20T07:26:02.515Z,26.83
2019-01-20T07:31:29.586Z,25.83
2019-01-20T07:34:10.204Z,25.43
2019-01-20T07:36:50.926Z,26.40
2019-01-20T07:39:31.850Z,25.57
2019-01-20T07:45:28.929Z,26.50
2019-01-20T07:48:09.599Z,26.40
2019-01-20T07:50:49.918Z,25.23
2019-01-20T07:53:30.993Z,25.27
2019-01-20T07:56:11.343Z,26.63
2019-01-20T07:58:53.461Z,25.23
2019-01-20T08:01:33.909Z,26.10
2019-01-20T08:04:14.782Z,28.00
2019-01-20T08:06:55.691Z,27.17
2019-01-20T08:12:23.593Z,26.50
2019-01-20T08:17:51.059Z,26.37
2019-01-20T08:20:33.735Z,26.80
2019-01-20T08:23:14.319Z,26.40
2019-01-20T08:25:58.410Z,25.73
2019-01-20T08:28:40.629Z,26.00
2019-01-20T08:31:21.469Z,25.40
2019-01-20T08:34:02.207Z,27.20
2019-01-20T08:36:43.715Z,26.37
2019-01-20T08:39:24.652Z,24.97
2019-01-20T08:42:05.391Z,26.40
2019-01-20T08:44:47.571Z,26.63
2019-01-20T08:47:28.906Z,27.67
2019-01-20T08:50:09.661Z,27.73
2019-01-20T08:52:50.278Z,28.40
2019-01-20T08:55:32.144Z,28.33
2019-01-20T08:58:13.076Z,28.33
2019-01-20T09:00:55.570Z,27.43
2019-01-20T09:03:36.885Z,25.00
2019-01-20T09:06:17.696Z,26.10
2019-01-20T09:08:58.576Z,26.07
2019-01-20T09:11:39.625Z,25.97
2019-01-20T09:17:05.332Z,26.73
2019-01-20T09:19:47.388Z,24.33
2019-01-20T09:22:29.247Z,25.13
2019-01-20T09:25:12.962Z,24.30
2019-01-20T09:27:54.198Z,25.37
2019-01-20T09:33:39.897Z,26.10
2019-01-20T09:39:40.831Z,28.93
2019-01-20T09:45:31.886Z,29.23
2019-01-20T09:48:19.683Z,28.67
2019-01-20T09:51:07.674Z,26.93
2019-01-20T09:56:49.260Z,28.37
2019-01-20T09:59:37.549Z,28.47
2019-01-20T10:02:18.582Z,29.17
2019-01-20T10:05:00.280Z,27.60
2019-01-20T10:07:42.249Z,28.63
2019-01-20T10:13:07.446Z,29.73
2019-01-20T10:15:47.866Z,27.60
2019-01-20T10:18:28.982Z,29.47
2019-01-20T10:21:10.155Z,29.50
2019-01-20T10:23:52.337Z,29.47
2019-01-20T10:26:33.415Z,28.40
2019-01-20T10:29:14.326Z,28.17
2019-01-20T10:31:55.132Z,29.77
2019-01-20T10:34:37.033Z,27.63
2019-01-20T10:37:17.700Z,28.00
2019-01-20T10:39:58.251Z,29.70
2019-01-20T10:42:40.783Z,27.57
2019-01-20T10:45:21.639Z,29.67
2019-01-20T10:48:02.099Z,29.20
2019-01-20T10:50:43.176Z,30.00
2019-01-20T10:53:23.451Z,28.93
2019-01-20T10:56:05.096Z,28.27
2019-01-20T10:58:47.736Z,30.00
2019-01-20T11:01:28.782Z,30.57
2019-01-20T11:04:10.343Z,31.27
2019-01-20T11:06:51.154Z,31.60
2019-01-20T11:09:35.411Z,30.63
2019-01-20T11:12:16.254Z,29.30
2019-01-20T11:14:57.119Z,30.10
2019-01-20T11:17:39.762Z,31.20
2019-01-20T11:20:20.958Z,33.30
2019-01-20T11:23:02.039Z,30.97
2019-01-20T11:25:42.458Z,33.63
2019-01-20T11:28:24.403Z,33.67
2019-01-20T11:33:44.598Z,34.63
2019-01-20T11:39:05.162Z,35.00
2019-01-20T11:41:46.519Z,32.50
2019-01-20T11:44:30.071Z,33.97
2019-01-20T11:47:12.086Z,35.73
2019-01-20T11:49:53.203Z,35.83
2019-01-20T11:52:35.452Z,36.07
2019-01-20T11:55:16.083Z,35.17
2019-01-20T12:00:47.068Z,36.27
2019-01-20T12:03:29.079Z,34.40
2019-01-20T12:06:10.168Z,34.33
2019-01-20T12:08:52.042Z,36.27
2019-01-20T12:11:43.414Z,37.57
2019-01-20T12:14:31.207Z,34.20
2019-01-20T12:17:19.640Z,33.17
2019-01-20T12:23:27.491Z,30.63
2019-01-20T12:26:29.918Z,32.00
2019-01-20T12:29:05.538Z,30.60
2019-01-20T12:33:07.327Z,32.60
2019-01-20T12:37:45.022Z,29.97
2019-01-20T12:40:52.454Z,29.50
2019-01-20T12:43:40.540Z,31.63
2019-01-20T12:46:28.708Z,32.10
2019-01-20T12:49:37.504Z,31.20
2019-01-20T12:52:44.538Z,34.97
2019-01-20T12:58:51.987Z,35.73
2019-01-20T13:01:27.763Z,36.27
2019-01-20T13:04:08.875Z,29.20
2019-01-20T13:09:39.326Z,32.73
2019-01-20T13:12:19.827Z,32.10
2019-01-20T13:15:03.630Z,35.33
2019-01-20T13:17:45.369Z,32.93
2019-01-20T13:20:29.599Z,32.80
2019-01-20T13:23:13.127Z,32.03
2019-01-20T13:25:54.403Z,32.27
2019-01-20T13:28:34.969Z,31.30
2019-01-20T13:34:00.725Z,32.67
2019-01-20T13:36:42.927Z,31.47
2019-01-20T13:39:24.272Z,31.93
2019-01-20T13:42:04.811Z,31.77
2019-01-20T13:44:46.265Z,31.50
2019-01-20T13:47:28.322Z,31.73
2019-01-20T13:50:12.658Z,33.73
2019-01-20T13:55:48.042Z,32.20
2019-01-20T14:01:57.408Z,30.53
2019-01-20T14:04:27.669Z,31.57
2019-01-20T14:15:42.501Z,32.07
2019-01-20T14:21:09.780Z,32.60
2019-01-20T14:23:51.866Z,31.83
2019-01-20T14:29:17.247Z,32.10
2019-01-20T14:31:59.384Z,31.70
2019-01-20T14:34:40.995Z,31.47
2019-01-20T14:37:21.655Z,32.53
2019-01-20T14:40:02.615Z,32.10
2019-01-20T14:42:43.338Z,33.27
2019-01-20T14:45:25.183Z,34.60
2019-01-20T14:53:58.252Z,29.93
2019-01-20T14:56:40.555Z,29.53
2019-01-20T14:59:22.995Z,29.47
2019-01-20T15:04:49.766Z,30.63
2019-01-20T15:10:14.267Z,32.23
2019-01-20T15:12:55.084Z,32.90
2019-01-20T15:15:39.091Z,35.47
2019-01-20T15:23:47.567Z,33.13
2019-01-20T15:26:29.548Z,31.50
2019-01-20T15:29:10.391Z,32.73
2019-01-20T15:34:40.159Z,31.37
2019-01-20T15:37:22.372Z,32.90
2019-01-20T15:40:04.867Z,32.47
2019-01-20T15:42:46.250Z,33.10
2019-01-20T15:45:29.613Z,32.50
2019-01-20T15:50:54.671Z,32.87
2019-01-20T15:53:35.687Z,34.07
2019-01-20T15:56:16.911Z,31.57
2019-01-20T15:58:58.001Z,34.13
2019-01-20T16:01:39.165Z,33.50
2019-01-20T16:04:24.051Z,34.30
2019-01-20T16:09:47.491Z,39.77
2019-01-20T16:15:12.778Z,34.73
2019-01-20T16:17:54.364Z,32.80
2019-01-20T16:20:35.802Z,33.47
2019-01-20T16:26:02.074Z,34.50
2019-01-20T16:31:39.791Z,34.90
2019-01-20T16:37:00.921Z,32.57
2019-01-20T16:39:45.660Z,34.63
2019-01-20T16:42:25.687Z,32.63
2019-01-20T16:45:06.531Z,33.13
2019-01-20T16:47:47.125Z,33.50
2019-01-20T16:50:29.760Z,34.13
2019-01-20T16:55:56.438Z,30.37
2019-01-20T16:58:39.151Z,33.37
2019-01-20T17:01:20.128Z,69.13
2019-01-20T17:04:00.987Z,46.20
2019-01-20T17:06:41.591Z,36.83
2019-01-20T17:09:23.843Z,32.53
2019-01-20T17:12:04.645Z,32.27
2019-01-20T17:14:46.157Z,31.80
2019-01-20T17:17:27.235Z,31.67
2019-01-20T17:20:08.092Z,33.30
2019-01-20T17:22:49.358Z,31.27
2019-01-20T17:25:30.471Z,31.67
2019-01-20T17:28:11.147Z,32.10
2019-01-20T17:30:51.808Z,33.30
2019-01-20T17:33:32.847Z,32.87
2019-01-20T17:36:14.302Z,33.00
2019-01-20T17:41:40.172Z,29.70
2019-01-20T17:44:22.329Z,30.90
2019-01-20T17:47:04.407Z,30.47
2019-01-20T17:52:29.051Z,31.87
2019-01-20T17:55:09.527Z,30.13
2019-01-20T17:57:51.193Z,30.03
2019-01-20T18:00:33.735Z,41.57
2019-01-20T18:03:15.049Z,33.47
2019-01-20T18:05:56.479Z,29.97
2019-01-20T18:08:38.058Z,32.67
2019-01-20T18:11:18.671Z,31.20
2019-01-20T18:13:59.198Z,30.97
2019-01-20T18:16:43.412Z,30.13
2019-01-20T18:19:27.745Z,31.70
2019-01-20T18:22:08.896Z,32.90
2019-01-20T18:27:34.271Z,32.37
2019-01-20T18:30:15.065Z,30.03
2019-01-20T18:32:55.680Z,31.63
2019-01-20T18:35:38.265Z,29.43
2019-01-20T18:38:19.015Z,30.80
2019-01-20T18:41:00.487Z,32.10
2019-01-20T18:43:41.668Z,33.90
2019-01-20T18:46:21.965Z,33.60
2019-01-20T18:49:02.864Z,31.23
2019-01-20T18:54:45.486Z,33.20
2019-01-20T18:57:33.834Z,35.23
2019-01-20T19:00:40.967Z,34.63
2019-01-20T19:03:23.277Z,32.70
2019-01-20T19:06:04.194Z,31.90
2019-01-20T19:08:45.487Z,31.33
2019-01-20T19:11:27.749Z,36.30
2019-01-20T19:14:08.676Z,36.67
2019-01-20T19:16:49.258Z,31.70
2019-01-20T19:19:30.090Z,31.40
2019-01-20T19:24:55.968Z,30.70
2019-01-20T19:27:37.986Z,33.83
2019-01-20T19:30:18.472Z,33.13
2019-01-20T19:32:59.789Z,31.10
2019-01-20T19:35:40.337Z,33.27
2019-01-20T19:38:21.249Z,32.93
2019-01-20T19:41:02.177Z,31.53
2019-01-20T19:43:42.956Z,32.33
2019-01-20T19:46:23.331Z,37.13
2019-01-20T19:49:04.454Z,39.30
2019-01-20T19:54:34.752Z,39.27
2019-01-20T19:57:15.970Z,33.83
2019-01-20T19:59:57.491Z,38.87
2019-01-20T20:02:39.983Z,33.20
2019-01-20T20:05:21.766Z,38.43
2019-01-20T20:08:03.905Z,45.07
2019-01-20T20:10:44.294Z,58.70
2019-01-20T20:13:25.850Z,41.47
2019-01-20T20:16:06.754Z,35.50
2019-01-20T20:21:51.030Z,35.67
2019-01-20T20:24:32.459Z,34.50
2019-01-20T20:27:12.888Z,33.10
2019-01-20T20:29:53.756Z,34.03
2019-01-20T20:32:35.485Z,29.93
2019-01-20T20:35:16.534Z,30.90
2019-01-20T20:37:59.075Z,30.23
2019-01-20T20:40:39.724Z,30.70
2019-01-20T20:43:22.272Z,32.17
2019-01-20T20:46:04.348Z,30.93
2019-01-20T20:48:45.811Z,29.17
2019-01-20T20:51:29.908Z,29.37
2019-01-20T20:54:11.012Z,31.17
2019-01-20T20:56:53.786Z,29.20
2019-01-20T20:59:35.003Z,30.27
2019-01-20T21:02:15.604Z,29.57
2019-01-20T21:04:57.123Z,30.77
2019-01-20T21:07:38.258Z,30.10
2019-01-20T21:10:20.634Z,29.70
2019-01-20T21:15:50.962Z,31.30
2019-01-20T21:18:32.291Z,29.33
2019-01-20T21:21:13.211Z,31.37
2019-01-20T21:23:56.688Z,31.83
2019-01-20T21:26:37.354Z,30.23
2019-01-20T21:29:18.715Z,31.23
2019-01-20T21:31:59.703Z,29.30
2019-01-20T21:34:43.283Z,31.57
2019-01-20T21:37:24.367Z,29.90
2019-01-20T21:40:08.134Z,30.63
2019-01-20T21:42:48.669Z,31.73
2019-01-20T21:45:29.415Z,30.97
2019-01-20T21:48:10.743Z,29.80
2019-01-20T21:50:51.885Z,30.27
2019-01-20T21:53:32.417Z,31.63
2019-01-20T21:56:13.265Z,31.17
2019-01-20T21:58:54.153Z,29.90
2019-01-20T22:01:34.592Z,30.60
2019-01-20T22:04:14.997Z,29.40
2019-01-20T22:06:58.917Z,30.37
2019-01-20T22:09:39.814Z,29.97
2019-01-20T22:12:24.309Z,31.53
2019-01-20T22:14:52.828Z,29.80
2019-01-20T22:17:41.090Z,29.70
2019-01-20T22:20:50.113Z,29.93
2019-01-20T22:23:26.158Z,31.97
2019-01-20T22:26:14.099Z,31.50
2019-01-20T22:29:02.195Z,29.57
2019-01-20T22:34:44.115Z,30.30
2019-01-20T22:37:31.936Z,31.07
2019-01-20T22:40:19.972Z,30.83
2019-01-20T22:43:28.543Z,31.20
2019-01-20T22:46:16.327Z,32.10
2019-01-20T22:49:04.164Z,30.37
2019-01-20T22:51:52.761Z,31.23
2019-01-20T22:54:40.226Z,31.93
2019-01-20T22:57:28.443Z,31.20
2019-01-20T23:03:30.078Z,30.23
2019-01-20T23:06:13.606Z,31.50
2019-01-20T23:08:54.943Z,30.00
2019-01-20T23:14:23.130Z,31.17
2019-01-20T23:17:11.393Z,31.37
2019-01-20T23:19:59.194Z,31.37
2019-01-20T23:22:47.071Z,31.67
2019-01-20T23:25:34.933Z,32.00
2019-01-20T23:28:22.775Z,32.30
2019-01-20T23:31:10.951Z,31.73
2019-01-20T23:34:18.056Z,31.93
2019-01-20T23:37:06.073Z,31.00
2019-01-20T23:39:53.850Z,31.00
2019-01-20T23:42:41.767Z,33.27
2019-01-20T23:45:29.567Z,32.23
2019-01-20T23:48:17.408Z,31.77
2019-01-20T23:53:59.999Z,31.20
2019-01-20T23:56:48.054Z,29.97
2019-01-20T23:59:36.881Z,30.07
